Coushatta, Louisiana
Current Conditions -  °F | °C
As of 6:15 AM on Thursday 29 Jan 2015 (Local Time) from KIER Reporting Station
Overcast Overcast  
Wind Chill: 56°   Ceiling: 500
Heat Index: 56°   Visibility: 10mi
Dew Point: 55°   Wind: 6mph
Humidity: 97%   Direction: 200°SSW
Pressure: 30.16"   Gusts: NA
Location:  32.01°N, 93.34°W
Report Text: KIER 291215Z AUTO 20005KT 10SM OVC005 13/13 A3016 RMK AO2 T01320127
Loading
Personal Weather Stations






























Interactive Weather Map New forecast layout! Learn more

10-Day Weather Forecast

Advertisements
Track Severe Weather on mobile